sensor_id;sensor_type;location;lat;lon;timestamp;P1;durP1;ratioP1;P2;durP2;ratioP2
25717;SDS011;13574;52.040;5.692;2022-11-23T00:01:10;21.80;;;12.25;;
25717;SDS011;13574;52.040;5.692;2022-11-23T00:03:43;25.17;;;13.07;;
25717;SDS011;13574;52.040;5.692;2022-11-23T00:06:10;21.88;;;12.23;;
25717;SDS011;13574;52.040;5.692;2022-11-23T00:08:36;25.05;;;12.85;;
25717;SDS011;13574;52.040;5.692;2022-11-23T00:11:02;19.92;;;11.40;;
25717;SDS011;13574;52.040;5.692;2022-11-23T00:13:28;19.75;;;12.07;;
25717;SDS011;13574;52.040;5.692;2022-11-23T00:15:54;23.55;;;11.10;;
25717;SDS011;13574;52.040;5.692;2022-11-23T00:18:19;18.42;;;12.15;;
25717;SDS011;13574;52.040;5.692;2022-11-23T00:20:45;21.13;;;11.75;;
25717;SDS011;13574;52.040;5.692;2022-11-23T00:23:11;18.73;;;11.32;;
25717;SDS011;13574;52.040;5.692;2022-11-23T00:25:36;23.17;;;11.80;;
25717;SDS011;13574;52.040;5.692;2022-11-23T00:28:02;20.98;;;11.88;;
25717;SDS011;13574;52.040;5.692;2022-11-23T00:30:28;21.90;;;12.15;;
25717;SDS011;13574;52.040;5.692;2022-11-23T00:32:54;24.80;;;11.82;;
25717;SDS011;13574;52.040;5.692;2022-11-23T00:35:20;23.35;;;12.77;;
25717;SDS011;13574;52.040;5.692;2022-11-23T00:37:46;24.25;;;12.23;;
25717;SDS011;13574;52.040;5.692;2022-11-23T00:40:12;21.92;;;13.20;;
25717;SDS011;13574;52.040;5.692;2022-11-23T00:42:38;23.23;;;12.30;;
25717;SDS011;13574;52.040;5.692;2022-11-23T00:45:04;26.67;;;14.00;;
25717;SDS011;13574;52.040;5.692;2022-11-23T00:47:30;25.80;;;13.95;;
25717;SDS011;13574;52.040;5.692;2022-11-23T00:49:56;25.85;;;14.45;;
25717;SDS011;13574;52.040;5.692;2022-11-23T00:52:21;28.30;;;14.30;;
25717;SDS011;13574;52.040;5.692;2022-11-23T00:54:47;28.83;;;14.40;;
25717;SDS011;13574;52.040;5.692;2022-11-23T00:57:13;26.95;;;15.07;;
25717;SDS011;13574;52.040;5.692;2022-11-23T00:59:38;25.02;;;15.32;;
25717;SDS011;13574;52.040;5.692;2022-11-23T01:02:04;31.10;;;15.88;;
25717;SDS011;13574;52.040;5.692;2022-11-23T01:04:30;29.40;;;15.30;;
25717;SDS011;13574;52.040;5.692;2022-11-23T01:06:55;35.92;;;16.77;;
25717;SDS011;13574;52.040;5.692;2022-11-23T01:09:22;29.60;;;15.98;;
25717;SDS011;13574;52.040;5.692;2022-11-23T01:11:51;27.00;;;15.13;;
25717;SDS011;13574;52.040;5.692;2022-11-23T01:14:20;29.00;;;15.45;;
25717;SDS011;13574;52.040;5.692;2022-11-23T01:16:46;31.30;;;15.77;;
25717;SDS011;13574;52.040;5.692;2022-11-23T01:19:13;35.63;;;17.65;;
25717;SDS011;13574;52.040;5.692;2022-11-23T01:21:41;25.92;;;14.82;;
25717;SDS011;13574;52.040;5.692;2022-11-23T01:24:10;28.27;;;15.90;;
25717;SDS011;13574;52.040;5.692;2022-11-23T01:26:40;33.45;;;15.25;;
25717;SDS011;13574;52.040;5.692;2022-11-23T01:29:06;34.30;;;15.38;;
25717;SDS011;13574;52.040;5.692;2022-11-23T01:31:32;30.25;;;15.32;;
25717;SDS011;13574;52.040;5.692;2022-11-23T01:33:58;32.17;;;14.38;;
25717;SDS011;13574;52.040;5.692;2022-11-23T01:36:30;30.02;;;14.57;;
25717;SDS011;13574;52.040;5.692;2022-11-23T01:39:00;30.38;;;14.23;;
25717;SDS011;13574;52.040;5.692;2022-11-23T01:41:30;31.40;;;14.07;;
25717;SDS011;13574;52.040;5.692;2022-11-23T01:43:58;27.02;;;14.27;;
25717;SDS011;13574;52.040;5.692;2022-11-23T01:46:23;29.55;;;14.32;;
25717;SDS011;13574;52.040;5.692;2022-11-23T01:48:56;34.92;;;14.07;;
25717;SDS011;13574;52.040;5.692;2022-11-23T01:51:28;33.35;;;15.40;;
25717;SDS011;13574;52.040;5.692;2022-11-23T01:53:58;27.50;;;14.18;;
25717;SDS011;13574;52.040;5.692;2022-11-23T01:56:29;26.83;;;13.60;;
25717;SDS011;13574;52.040;5.692;2022-11-23T01:58:57;25.00;;;12.82;;
25717;SDS011;13574;52.040;5.692;2022-11-23T02:01:26;29.83;;;13.15;;
25717;SDS011;13574;52.040;5.692;2022-11-23T02:03:52;26.40;;;11.93;;
25717;SDS011;13574;52.040;5.692;2022-11-23T02:06:20;26.42;;;11.75;;
25717;SDS011;13574;52.040;5.692;2022-11-23T02:08:47;23.58;;;11.30;;
25717;SDS011;13574;52.040;5.692;2022-11-23T02:11:15;24.30;;;10.73;;
25717;SDS011;13574;52.040;5.692;2022-11-23T02:13:41;19.55;;;10.30;;
25717;SDS011;13574;52.040;5.692;2022-11-23T02:16:09;23.50;;;9.75;;
25717;SDS011;13574;52.040;5.692;2022-11-23T02:18:35;20.45;;;8.88;;
25717;SDS011;13574;52.040;5.692;2022-11-23T02:21:03;22.27;;;9.85;;
25717;SDS011;13574;52.040;5.692;2022-11-23T02:26:07;18.60;;;9.00;;
25717;SDS011;13574;52.040;5.692;2022-11-23T02:28:44;17.75;;;8.00;;
25717;SDS011;13574;52.040;5.692;2022-11-23T02:31:13;19.73;;;8.75;;
25717;SDS011;13574;52.040;5.692;2022-11-23T02:33:39;24.90;;;9.20;;
25717;SDS011;13574;52.040;5.692;2022-11-23T02:38:53;23.55;;;9.05;;
25717;SDS011;13574;52.040;5.692;2022-11-23T02:41:21;20.50;;;8.85;;
25717;SDS011;13574;52.040;5.692;2022-11-23T02:43:49;21.80;;;8.48;;
25717;SDS011;13574;52.040;5.692;2022-11-23T02:46:18;18.40;;;9.13;;
25717;SDS011;13574;52.040;5.692;2022-11-23T02:48:44;16.25;;;7.97;;
25717;SDS011;13574;52.040;5.692;2022-11-23T02:51:10;18.45;;;8.75;;
25717;SDS011;13574;52.040;5.692;2022-11-23T02:53:35;15.95;;;8.20;;
25717;SDS011;13574;52.040;5.692;2022-11-23T02:56:01;19.48;;;8.60;;
25717;SDS011;13574;52.040;5.692;2022-11-23T02:58:27;17.63;;;8.68;;
25717;SDS011;13574;52.040;5.692;2022-11-23T03:00:52;19.13;;;8.35;;
25717;SDS011;13574;52.040;5.692;2022-11-23T03:03:18;18.70;;;8.32;;
25717;SDS011;13574;52.040;5.692;2022-11-23T03:05:44;14.23;;;7.70;;
25717;SDS011;13574;52.040;5.692;2022-11-23T03:08:09;20.48;;;8.40;;
25717;SDS011;13574;52.040;5.692;2022-11-23T03:10:37;20.20;;;8.23;;
25717;SDS011;13574;52.040;5.692;2022-11-23T03:13:03;21.67;;;8.10;;
25717;SDS011;13574;52.040;5.692;2022-11-23T03:15:29;19.02;;;8.50;;
25717;SDS011;13574;52.040;5.692;2022-11-23T03:17:56;16.63;;;8.07;;
25717;SDS011;13574;52.040;5.692;2022-11-23T03:20:22;20.65;;;7.72;;
25717;SDS011;13574;52.040;5.692;2022-11-23T03:22:50;17.40;;;7.65;;
25717;SDS011;13574;52.040;5.692;2022-11-23T03:25:16;18.92;;;8.77;;
25717;SDS011;13574;52.040;5.692;2022-11-23T03:27:41;16.77;;;7.90;;
25717;SDS011;13574;52.040;5.692;2022-11-23T03:30:07;18.00;;;8.88;;
25717;SDS011;13574;52.040;5.692;2022-11-23T03:32:34;14.20;;;7.40;;
25717;SDS011;13574;52.040;5.692;2022-11-23T03:35:00;17.92;;;8.20;;
25717;SDS011;13574;52.040;5.692;2022-11-23T03:37:26;17.23;;;8.27;;
25717;SDS011;13574;52.040;5.692;2022-11-23T03:39:55;14.30;;;7.65;;
25717;SDS011;13574;52.040;5.692;2022-11-23T03:42:20;16.33;;;7.35;;
25717;SDS011;13574;52.040;5.692;2022-11-23T03:44:46;12.88;;;6.75;;
25717;SDS011;13574;52.040;5.692;2022-11-23T03:47:11;16.50;;;6.75;;
25717;SDS011;13574;52.040;5.692;2022-11-23T03:49:37;14.02;;;6.85;;
25717;SDS011;13574;52.040;5.692;2022-11-23T03:52:03;13.75;;;6.78;;
25717;SDS011;13574;52.040;5.692;2022-11-23T03:54:29;11.60;;;6.18;;
25717;SDS011;13574;52.040;5.692;2022-11-23T03:56:54;13.15;;;6.25;;
25717;SDS011;13574;52.040;5.692;2022-11-23T03:59:20;16.00;;;6.15;;
25717;SDS011;13574;52.040;5.692;2022-11-23T04:01:45;16.80;;;6.22;;
25717;SDS011;13574;52.040;5.692;2022-11-23T04:04:11;17.80;;;6.43;;
25717;SDS011;13574;52.040;5.692;2022-11-23T04:06:37;16.05;;;6.03;;
25717;SDS011;13574;52.040;5.692;2022-11-23T04:09:02;12.95;;;5.93;;
25717;SDS011;13574;52.040;5.692;2022-11-23T04:11:28;18.00;;;5.78;;
25717;SDS011;13574;52.040;5.692;2022-11-23T04:13:54;16.23;;;6.10;;
25717;SDS011;13574;52.040;5.692;2022-11-23T04:16:19;16.27;;;5.90;;
25717;SDS011;13574;52.040;5.692;2022-11-23T04:18:45;15.10;;;5.45;;
25717;SDS011;13574;52.040;5.692;2022-11-23T04:21:11;13.02;;;5.32;;
25717;SDS011;13574;52.040;5.692;2022-11-23T04:23:36;14.77;;;5.32;;
25717;SDS011;13574;52.040;5.692;2022-11-23T04:26:02;14.20;;;5.55;;
25717;SDS011;13574;52.040;5.692;2022-11-23T04:28:28;15.77;;;4.93;;
25717;SDS011;13574;52.040;5.692;2022-11-23T04:30:53;15.90;;;4.75;;
25717;SDS011;13574;52.040;5.692;2022-11-23T04:33:19;16.63;;;5.35;;
25717;SDS011;13574;52.040;5.692;2022-11-23T04:35:45;17.05;;;5.13;;
25717;SDS011;13574;52.040;5.692;2022-11-23T04:38:10;11.45;;;4.75;;
25717;SDS011;13574;52.040;5.692;2022-11-23T04:40:36;15.15;;;5.10;;
25717;SDS011;13574;52.040;5.692;2022-11-23T04:43:02;15.40;;;4.88;;
25717;SDS011;13574;52.040;5.692;2022-11-23T04:45:28;15.27;;;5.10;;
25717;SDS011;13574;52.040;5.692;2022-11-23T04:47:54;14.10;;;4.65;;
25717;SDS011;13574;52.040;5.692;2022-11-23T04:50:19;13.43;;;4.85;;
25717;SDS011;13574;52.040;5.692;2022-11-23T04:52:47;13.13;;;4.68;;
25717;SDS011;13574;52.040;5.692;2022-11-23T04:55:13;14.63;;;4.78;;
25717;SDS011;13574;52.040;5.692;2022-11-23T04:57:41;11.60;;;4.78;;
25717;SDS011;13574;52.040;5.692;2022-11-23T05:00:07;11.30;;;5.03;;
25717;SDS011;13574;52.040;5.692;2022-11-23T05:02:33;16.48;;;4.50;;
25717;SDS011;13574;52.040;5.692;2022-11-23T05:04:59;14.52;;;4.97;;
25717;SDS011;13574;52.040;5.692;2022-11-23T05:07:27;12.70;;;4.30;;
25717;SDS011;13574;52.040;5.692;2022-11-23T05:09:56;17.23;;;4.57;;
25717;SDS011;13574;52.040;5.692;2022-11-23T05:12:24;17.30;;;4.40;;
25717;SDS011;13574;52.040;5.692;2022-11-23T05:14:50;15.57;;;5.10;;
25717;SDS011;13574;52.040;5.692;2022-11-23T05:17:15;14.70;;;4.65;;
25717;SDS011;13574;52.040;5.692;2022-11-23T05:19:52;15.57;;;5.07;;
25717;SDS011;13574;52.040;5.692;2022-11-23T05:22:21;11.60;;;4.68;;
25717;SDS011;13574;52.040;5.692;2022-11-23T05:24:46;13.82;;;4.38;;
25717;SDS011;13574;52.040;5.692;2022-11-23T05:27:12;14.40;;;4.20;;
25717;SDS011;13574;52.040;5.692;2022-11-23T05:29:38;12.80;;;4.25;;
25717;SDS011;13574;52.040;5.692;2022-11-23T05:32:03;13.45;;;4.47;;
25717;SDS011;13574;52.040;5.692;2022-11-23T05:34:29;13.38;;;4.05;;
25717;SDS011;13574;52.040;5.692;2022-11-23T05:36:55;13.55;;;4.07;;
25717;SDS011;13574;52.040;5.692;2022-11-23T05:39:21;13.50;;;3.55;;
25717;SDS011;13574;52.040;5.692;2022-11-23T05:41:47;11.82;;;4.13;;
25717;SDS011;13574;52.040;5.692;2022-11-23T05:44:12;17.33;;;3.65;;
25717;SDS011;13574;52.040;5.692;2022-11-23T05:46:38;12.35;;;3.03;;
25717;SDS011;13574;52.040;5.692;2022-11-23T05:49:09;14.32;;;3.50;;
25717;SDS011;13574;52.040;5.692;2022-11-23T05:54:04;12.00;;;3.47;;
25717;SDS011;13574;52.040;5.692;2022-11-23T05:56:30;12.68;;;3.00;;
25717;SDS011;13574;52.040;5.692;2022-11-23T05:58:55;13.30;;;3.38;;
25717;SDS011;13574;52.040;5.692;2022-11-23T06:01:21;14.30;;;3.88;;
25717;SDS011;13574;52.040;5.692;2022-11-23T06:03:52;16.25;;;3.67;;
25717;SDS011;13574;52.040;5.692;2022-11-23T06:06:19;15.43;;;3.70;;
25717;SDS011;13574;52.040;5.692;2022-11-23T06:08:55;14.95;;;3.80;;
25717;SDS011;13574;52.040;5.692;2022-11-23T06:11:21;13.13;;;3.03;;
25717;SDS011;13574;52.040;5.692;2022-11-23T06:13:47;20.60;;;3.75;;
25717;SDS011;13574;52.040;5.692;2022-11-23T06:16:16;12.18;;;3.35;;
25717;SDS011;13574;52.040;5.692;2022-11-23T06:18:42;14.77;;;3.97;;
25717;SDS011;13574;52.040;5.692;2022-11-23T06:21:10;12.10;;;3.33;;
25717;SDS011;13574;52.040;5.692;2022-11-23T06:23:50;12.95;;;3.47;;
25717;SDS011;13574;52.040;5.692;2022-11-23T06:26:24;11.93;;;3.90;;
25717;SDS011;13574;52.040;5.692;2022-11-23T06:28:50;13.18;;;3.35;;
25717;SDS011;13574;52.040;5.692;2022-11-23T06:31:16;10.07;;;2.72;;
25717;SDS011;13574;52.040;5.692;2022-11-23T06:33:44;13.43;;;3.33;;
25717;SDS011;13574;52.040;5.692;2022-11-23T06:36:10;14.40;;;3.25;;
25717;SDS011;13574;52.040;5.692;2022-11-23T06:38:36;15.55;;;3.30;;
25717;SDS011;13574;52.040;5.692;2022-11-23T06:41:02;12.70;;;3.33;;
25717;SDS011;13574;52.040;5.692;2022-11-23T06:43:28;12.65;;;3.08;;
25717;SDS011;13574;52.040;5.692;2022-11-23T06:45:54;11.65;;;3.20;;
25717;SDS011;13574;52.040;5.692;2022-11-23T06:48:20;12.00;;;2.65;;
25717;SDS011;13574;52.040;5.692;2022-11-23T06:50:49;15.40;;;3.65;;
25717;SDS011;13574;52.040;5.692;2022-11-23T06:53:14;12.80;;;3.33;;
25717;SDS011;13574;52.040;5.692;2022-11-23T06:55:40;11.13;;;2.80;;
25717;SDS011;13574;52.040;5.692;2022-11-23T06:58:09;12.80;;;3.17;;
25717;SDS011;13574;52.040;5.692;2022-11-23T07:00:38;12.25;;;2.70;;
25717;SDS011;13574;52.040;5.692;2022-11-23T07:03:04;10.57;;;2.72;;
25717;SDS011;13574;52.040;5.692;2022-11-23T07:05:30;13.90;;;2.95;;
25717;SDS011;13574;52.040;5.692;2022-11-23T07:07:58;14.30;;;2.92;;
25717;SDS011;13574;52.040;5.692;2022-11-23T07:10:24;12.52;;;3.50;;
25717;SDS011;13574;52.040;5.692;2022-11-23T07:13:05;10.40;;;2.80;;
25717;SDS011;13574;52.040;5.692;2022-11-23T07:15:32;18.73;;;3.20;;
25717;SDS011;13574;52.040;5.692;2022-11-23T07:18:01;17.38;;;3.40;;
25717;SDS011;13574;52.040;5.692;2022-11-23T07:20:27;17.90;;;2.80;;
25717;SDS011;13574;52.040;5.692;2022-11-23T07:22:59;12.50;;;2.90;;
25717;SDS011;13574;52.040;5.692;2022-11-23T07:25:26;15.00;;;3.08;;
25717;SDS011;13574;52.040;5.692;2022-11-23T07:27:53;16.08;;;3.20;;
25717;SDS011;13574;52.040;5.692;2022-11-23T07:30:20;12.50;;;2.33;;
25717;SDS011;13574;52.040;5.692;2022-11-23T07:32:46;14.45;;;2.83;;
25717;SDS011;13574;52.040;5.692;2022-11-23T07:35:11;15.23;;;3.13;;
25717;SDS011;13574;52.040;5.692;2022-11-23T07:37:37;19.73;;;3.30;;
25717;SDS011;13574;52.040;5.692;2022-11-23T07:40:03;19.17;;;3.88;;
25717;SDS011;13574;52.040;5.692;2022-11-23T07:42:29;16.77;;;3.58;;
25717;SDS011;13574;52.040;5.692;2022-11-23T07:44:55;19.08;;;4.20;;
25717;SDS011;13574;52.040;5.692;2022-11-23T07:47:20;20.95;;;4.28;;
25717;SDS011;13574;52.040;5.692;2022-11-23T07:49:46;20.30;;;4.15;;
25717;SDS011;13574;52.040;5.692;2022-11-23T07:52:12;17.75;;;4.72;;
25717;SDS011;13574;52.040;5.692;2022-11-23T07:54:37;17.73;;;4.60;;
25717;SDS011;13574;52.040;5.692;2022-11-23T07:57:03;23.50;;;5.68;;
25717;SDS011;13574;52.040;5.692;2022-11-23T07:59:31;19.75;;;4.82;;
25717;SDS011;13574;52.040;5.692;2022-11-23T08:01:57;27.38;;;4.90;;
25717;SDS011;13574;52.040;5.692;2022-11-23T08:04:23;21.40;;;4.47;;
25717;SDS011;13574;52.040;5.692;2022-11-23T08:06:51;21.10;;;4.68;;
25717;SDS011;13574;52.040;5.692;2022-11-23T08:09:18;17.65;;;4.43;;
25717;SDS011;13574;52.040;5.692;2022-11-23T08:11:46;17.50;;;3.72;;
25717;SDS011;13574;52.040;5.692;2022-11-23T08:14:12;18.10;;;3.47;;
25717;SDS011;13574;52.040;5.692;2022-11-23T08:16:41;18.42;;;4.32;;
25717;SDS011;13574;52.040;5.692;2022-11-23T08:19:06;18.73;;;3.92;;
25717;SDS011;13574;52.040;5.692;2022-11-23T08:21:34;14.40;;;3.40;;
25717;SDS011;13574;52.040;5.692;2022-11-23T08:24:03;16.48;;;3.35;;
25717;SDS011;13574;52.040;5.692;2022-11-23T08:26:29;20.73;;;3.65;;
25717;SDS011;13574;52.040;5.692;2022-11-23T08:28:55;17.88;;;3.65;;
25717;SDS011;13574;52.040;5.692;2022-11-23T08:31:21;13.00;;;3.15;;
25717;SDS011;13574;52.040;5.692;2022-11-23T08:33:47;15.38;;;3.35;;
25717;SDS011;13574;52.040;5.692;2022-11-23T08:36:15;15.70;;;3.50;;
25717;SDS011;13574;52.040;5.692;2022-11-23T08:38:41;15.20;;;3.08;;
25717;SDS011;13574;52.040;5.692;2022-11-23T08:41:09;16.23;;;3.17;;
25717;SDS011;13574;52.040;5.692;2022-11-23T08:43:35;16.77;;;2.80;;
25717;SDS011;13574;52.040;5.692;2022-11-23T08:46:00;15.23;;;2.60;;
25717;SDS011;13574;52.040;5.692;2022-11-23T08:48:27;23.23;;;2.97;;
25717;SDS011;13574;52.040;5.692;2022-11-23T08:50:56;19.15;;;2.72;;
25717;SDS011;13574;52.040;5.692;2022-11-23T08:53:23;16.23;;;2.70;;
25717;SDS011;13574;52.040;5.692;2022-11-23T08:55:48;14.02;;;2.72;;
25717;SDS011;13574;52.040;5.692;2022-11-23T08:58:14;15.48;;;3.28;;
25717;SDS011;13574;52.040;5.692;2022-11-23T09:00:40;19.60;;;2.67;;
25717;SDS011;13574;52.040;5.692;2022-11-23T09:03:08;15.10;;;3.13;;
25717;SDS011;13574;52.040;5.692;2022-11-23T09:05:35;17.40;;;2.50;;
25717;SDS011;13574;52.040;5.692;2022-11-23T09:08:04;14.40;;;2.40;;
25717;SDS011;13574;52.040;5.692;2022-11-23T09:10:30;10.55;;;2.38;;
25717;SDS011;13574;52.040;5.692;2022-11-23T09:12:58;11.07;;;2.38;;
25717;SDS011;13574;52.040;5.692;2022-11-23T09:15:24;14.48;;;2.42;;
25717;SDS011;13574;52.040;5.692;2022-11-23T09:17:50;10.35;;;2.28;;
25717;SDS011;13574;52.040;5.692;2022-11-23T09:20:18;12.90;;;2.72;;
25717;SDS011;13574;52.040;5.692;2022-11-23T09:22:49;15.55;;;2.50;;
25717;SDS011;13574;52.040;5.692;2022-11-23T09:25:19;14.88;;;2.25;;
25717;SDS011;13574;52.040;5.692;2022-11-23T09:27:45;12.30;;;2.28;;
25717;SDS011;13574;52.040;5.692;2022-11-23T09:33:05;10.70;;;2.20;;
25717;SDS011;13574;52.040;5.692;2022-11-23T09:35:32;9.35;;;2.50;;
25717;SDS011;13574;52.040;5.692;2022-11-23T09:37:58;13.25;;;2.28;;
25717;SDS011;13574;52.040;5.692;2022-11-23T09:40:42;16.25;;;3.00;;
25717;SDS011;13574;52.040;5.692;2022-11-23T09:45:54;9.25;;;2.20;;
25717;SDS011;13574;52.040;5.692;2022-11-23T09:48:37;10.48;;;2.15;;
25717;SDS011;13574;52.040;5.692;2022-11-23T09:56:24;9.98;;;2.00;;
25717;SDS011;13574;52.040;5.692;2022-11-23T09:58:54;16.58;;;2.47;;
25717;SDS011;13574;52.040;5.692;2022-11-23T10:01:22;15.00;;;2.55;;
25717;SDS011;13574;52.040;5.692;2022-11-23T10:03:48;11.27;;;2.53;;
25717;SDS011;13574;52.040;5.692;2022-11-23T10:08:56;13.05;;;2.67;;
25717;SDS011;13574;52.040;5.692;2022-11-23T10:17:03;10.15;;;2.22;;
25717;SDS011;13574;52.040;5.692;2022-11-23T10:22:49;14.10;;;2.58;;
25717;SDS011;13574;52.040;5.692;2022-11-23T10:25:17;13.50;;;2.60;;
25717;SDS011;13574;52.040;5.692;2022-11-23T10:27:48;14.45;;;2.47;;
25717;SDS011;13574;52.040;5.692;2022-11-23T10:30:15;13.07;;;2.65;;
25717;SDS011;13574;52.040;5.692;2022-11-23T10:32:48;16.35;;;2.58;;
25717;SDS011;13574;52.040;5.692;2022-11-23T10:38:11;12.32;;;2.70;;
25717;SDS011;13574;52.040;5.692;2022-11-23T10:40:38;10.20;;;2.15;;
25717;SDS011;13574;52.040;5.692;2022-11-23T10:43:17;11.13;;;2.75;;
25717;SDS011;13574;52.040;5.692;2022-11-23T10:45:48;12.65;;;2.55;;
25717;SDS011;13574;52.040;5.692;2022-11-23T10:51:14;9.00;;;2.17;;
25717;SDS011;13574;52.040;5.692;2022-11-23T10:53:57;10.38;;;2.65;;
25717;SDS011;13574;52.040;5.692;2022-11-23T10:56:25;12.70;;;2.28;;
25717;SDS011;13574;52.040;5.692;2022-11-23T10:58:51;10.15;;;2.65;;
25717;SDS011;13574;52.040;5.692;2022-11-23T11:01:19;9.85;;;2.38;;
25717;SDS011;13574;52.040;5.692;2022-11-23T11:03:50;13.90;;;2.45;;
25717;SDS011;13574;52.040;5.692;2022-11-23T11:06:20;9.40;;;2.20;;
25717;SDS011;13574;52.040;5.692;2022-11-23T11:14:05;14.48;;;2.78;;
25717;SDS011;13574;52.040;5.692;2022-11-23T11:16:54;10.15;;;2.75;;
25717;SDS011;13574;52.040;5.692;2022-11-23T11:21:57;11.90;;;3.17;;
25717;SDS011;13574;52.040;5.692;2022-11-23T11:26:56;12.50;;;2.30;;
25717;SDS011;13574;52.040;5.692;2022-11-23T11:29:33;12.93;;;2.50;;
25717;SDS011;13574;52.040;5.692;2022-11-23T11:32:03;13.50;;;2.35;;
25717;SDS011;13574;52.040;5.692;2022-11-23T11:37:35;11.07;;;2.28;;
25717;SDS011;13574;52.040;5.692;2022-11-23T11:42:52;13.32;;;2.35;;
25717;SDS011;13574;52.040;5.692;2022-11-23T11:45:27;12.70;;;2.13;;
25717;SDS011;13574;52.040;5.692;2022-11-23T11:48:15;10.00;;;2.22;;
25717;SDS011;13574;52.040;5.692;2022-11-23T11:50:46;10.88;;;2.05;;
25717;SDS011;13574;52.040;5.692;2022-11-23T11:53:16;9.35;;;1.92;;
25717;SDS011;13574;52.040;5.692;2022-11-23T11:55:57;16.37;;;2.97;;
25717;SDS011;13574;52.040;5.692;2022-11-23T11:58:29;10.52;;;2.22;;
25717;SDS011;13574;52.040;5.692;2022-11-23T12:01:02;10.30;;;1.90;;
25717;SDS011;13574;52.040;5.692;2022-11-23T12:03:50;7.38;;;1.48;;
25717;SDS011;13574;52.040;5.692;2022-11-23T12:09:21;10.55;;;1.70;;
25717;SDS011;13574;52.040;5.692;2022-11-23T12:11:54;7.68;;;1.77;;
25717;SDS011;13574;52.040;5.692;2022-11-23T12:14:21;5.38;;;1.38;;
25717;SDS011;13574;52.040;5.692;2022-11-23T12:19:36;10.38;;;1.75;;
25717;SDS011;13574;52.040;5.692;2022-11-23T12:24:43;9.48;;;1.77;;
25717;SDS011;13574;52.040;5.692;2022-11-23T12:27:32;12.15;;;2.22;;
25717;SDS011;13574;52.040;5.692;2022-11-23T12:31:08;6.05;;;1.58;;
25717;SDS011;13574;52.040;5.692;2022-11-23T12:35:55;9.10;;;1.63;;
25717;SDS011;13574;52.040;5.692;2022-11-23T12:42:02;6.30;;;1.60;;
25717;SDS011;13574;52.040;5.692;2022-11-23T12:44:41;9.52;;;1.60;;
25717;SDS011;13574;52.040;5.692;2022-11-23T12:47:15;7.78;;;1.60;;
25717;SDS011;13574;52.040;5.692;2022-11-23T12:50:08;10.48;;;1.73;;
25717;SDS011;13574;52.040;5.692;2022-11-23T12:53:04;8.00;;;1.63;;
25717;SDS011;13574;52.040;5.692;2022-11-23T12:58:49;6.55;;;1.60;;
25717;SDS011;13574;52.040;5.692;2022-11-23T13:10:01;9.10;;;1.50;;
25717;SDS011;13574;52.040;5.692;2022-11-23T13:15:47;8.45;;;1.50;;
25717;SDS011;13574;52.040;5.692;2022-11-23T13:18:45;5.68;;;1.27;;
25717;SDS011;13574;52.040;5.692;2022-11-23T13:21:34;6.93;;;1.40;;
25717;SDS011;13574;52.040;5.692;2022-11-23T13:35:21;7.43;;;1.70;;
25717;SDS011;13574;52.040;5.692;2022-11-23T13:40:40;5.68;;;1.52;;
25717;SDS011;13574;52.040;5.692;2022-11-23T13:43:47;8.02;;;1.23;;
25717;SDS011;13574;52.040;5.692;2022-11-23T13:48:55;6.50;;;1.40;;
25717;SDS011;13574;52.040;5.692;2022-11-23T13:51:31;7.68;;;1.40;;
25717;SDS011;13574;52.040;5.692;2022-11-23T13:54:03;4.10;;;1.20;;
25717;SDS011;13574;52.040;5.692;2022-11-23T13:56:46;5.70;;;1.27;;
25717;SDS011;13574;52.040;5.692;2022-11-23T14:04:37;7.68;;;1.10;;
25717;SDS011;13574;52.040;5.692;2022-11-23T14:09:49;6.45;;;1.38;;
25717;SDS011;13574;52.040;5.692;2022-11-23T14:12:45;8.43;;;1.45;;
25717;SDS011;13574;52.040;5.692;2022-11-23T14:15:22;6.70;;;1.13;;
25717;SDS011;13574;52.040;5.692;2022-11-23T14:37:03;8.05;;;1.65;;
25717;SDS011;13574;52.040;5.692;2022-11-23T14:42:37;5.22;;;1.48;;
25717;SDS011;13574;52.040;5.692;2022-11-23T14:45:28;8.57;;;1.70;;
25717;SDS011;13574;52.040;5.692;2022-11-23T14:47:56;8.60;;;2.03;;
25717;SDS011;13574;52.040;5.692;2022-11-23T14:50:42;11.82;;;1.90;;
25717;SDS011;13574;52.040;5.692;2022-11-23T14:53:17;9.45;;;1.77;;
25717;SDS011;13574;52.040;5.692;2022-11-23T14:55:51;9.50;;;2.22;;
25717;SDS011;13574;52.040;5.692;2022-11-23T14:58:20;8.52;;;2.03;;
25717;SDS011;13574;52.040;5.692;2022-11-23T15:00:50;9.13;;;2.22;;
25717;SDS011;13574;52.040;5.692;2022-11-23T15:03:25;11.40;;;1.70;;
25717;SDS011;13574;52.040;5.692;2022-11-23T15:05:57;14.57;;;2.35;;
25717;SDS011;13574;52.040;5.692;2022-11-23T15:08:34;10.43;;;3.28;;
25717;SDS011;13574;52.040;5.692;2022-11-23T15:11:18;7.40;;;2.47;;
25717;SDS011;13574;52.040;5.692;2022-11-23T15:13:52;9.63;;;1.92;;
25717;SDS011;13574;52.040;5.692;2022-11-23T15:16:28;10.10;;;2.03;;
25717;SDS011;13574;52.040;5.692;2022-11-23T15:19:15;6.32;;;1.90;;
25717;SDS011;13574;52.040;5.692;2022-11-23T15:21:43;6.32;;;1.80;;
25717;SDS011;13574;52.040;5.692;2022-11-23T15:24:18;9.70;;;2.10;;
25717;SDS011;13574;52.040;5.692;2022-11-23T15:26:46;11.07;;;2.45;;
25717;SDS011;13574;52.040;5.692;2022-11-23T15:29:36;8.60;;;2.33;;
25717;SDS011;13574;52.040;5.692;2022-11-23T15:32:03;10.60;;;2.40;;
25717;SDS011;13574;52.040;5.692;2022-11-23T15:34:51;8.68;;;2.17;;
25717;SDS011;13574;52.040;5.692;2022-11-23T15:37:20;6.82;;;2.20;;
25717;SDS011;13574;52.040;5.692;2022-11-23T15:39:49;9.48;;;2.35;;
25717;SDS011;13574;52.040;5.692;2022-11-23T15:42:17;7.65;;;2.40;;
25717;SDS011;13574;52.040;5.692;2022-11-23T15:44:45;8.73;;;2.70;;
25717;SDS011;13574;52.040;5.692;2022-11-23T15:47:19;9.68;;;2.75;;
25717;SDS011;13574;52.040;5.692;2022-11-23T15:49:50;9.38;;;2.40;;
25717;SDS011;13574;52.040;5.692;2022-11-23T15:52:26;9.60;;;2.70;;
25717;SDS011;13574;52.040;5.692;2022-11-23T15:55:00;7.25;;;2.80;;
25717;SDS011;13574;52.040;5.692;2022-11-23T15:57:30;12.93;;;3.00;;
25717;SDS011;13574;52.040;5.692;2022-11-23T16:00:01;9.95;;;2.70;;
25717;SDS011;13574;52.040;5.692;2022-11-23T16:02:31;8.23;;;3.13;;
25717;SDS011;13574;52.040;5.692;2022-11-23T16:05:14;9.43;;;3.20;;
25717;SDS011;13574;52.040;5.692;2022-11-23T16:10:21;12.25;;;3.30;;
25717;SDS011;13574;52.040;5.692;2022-11-23T16:12:51;10.60;;;3.30;;
25717;SDS011;13574;52.040;5.692;2022-11-23T16:15:37;8.23;;;3.38;;
25717;SDS011;13574;52.040;5.692;2022-11-23T16:20:53;14.00;;;3.90;;
25717;SDS011;13574;52.040;5.692;2022-11-23T16:23:42;10.05;;;3.90;;
25717;SDS011;13574;52.040;5.692;2022-11-23T16:26:11;14.45;;;3.65;;
25717;SDS011;13574;52.040;5.692;2022-11-23T16:28:52;8.35;;;4.20;;
25717;SDS011;13574;52.040;5.692;2022-11-23T16:31:29;7.93;;;3.60;;
25717;SDS011;13574;52.040;5.692;2022-11-23T16:34:12;10.45;;;4.88;;
25717;SDS011;13574;52.040;5.692;2022-11-23T16:36:41;9.50;;;4.60;;
25717;SDS011;13574;52.040;5.692;2022-11-23T16:39:06;13.57;;;4.30;;
25717;SDS011;13574;52.040;5.692;2022-11-23T16:41:32;10.77;;;4.50;;
25717;SDS011;13574;52.040;5.692;2022-11-23T16:44:09;12.35;;;4.43;;
25717;SDS011;13574;52.040;5.692;2022-11-23T16:46:48;9.77;;;4.72;;
25717;SDS011;13574;52.040;5.692;2022-11-23T16:49:17;11.05;;;4.47;;
25717;SDS011;13574;52.040;5.692;2022-11-23T16:51:54;9.52;;;4.68;;
25717;SDS011;13574;52.040;5.692;2022-11-23T16:54:23;13.60;;;5.30;;
25717;SDS011;13574;52.040;5.692;2022-11-23T16:56:53;9.35;;;5.32;;
25717;SDS011;13574;52.040;5.692;2022-11-23T16:59:19;11.57;;;5.35;;
25717;SDS011;13574;52.040;5.692;2022-11-23T17:01:47;9.60;;;5.47;;
25717;SDS011;13574;52.040;5.692;2022-11-23T17:04:21;11.05;;;5.30;;